createdAt,value
2018-03-06T00:01:24.340Z,89.76
2018-03-06T00:03:50.134Z,90.26
2018-03-06T00:06:15.940Z,90.36
2018-03-06T00:08:41.742Z,90.16
2018-03-06T00:11:07.542Z,89.95
2018-03-06T00:13:33.355Z,89.73
2018-03-06T00:15:59.152Z,89.56
2018-03-06T00:18:24.943Z,89.50
2018-03-06T00:20:50.863Z,90.04
2018-03-06T00:23:16.656Z,89.94
2018-03-06T00:25:42.442Z,90.20
2018-03-06T00:28:08.440Z,90.70
2018-03-06T00:30:34.239Z,89.80
2018-03-06T00:33:00.032Z,90.72
2018-03-06T00:35:25.839Z,90.22
2018-03-06T00:37:51.640Z,90.28
2018-03-06T00:40:17.436Z,90.45
2018-03-06T00:42:43.395Z,90.54
2018-03-06T00:45:09.191Z,90.53
2018-03-06T00:47:34.987Z,90.34
2018-03-06T00:50:00.924Z,89.91
2018-03-06T00:52:26.731Z,90.19
2018-03-06T00:54:52.525Z,90.13
2018-03-06T00:57:18.567Z,90.28
2018-03-06T00:59:44.367Z,90.24
2018-03-06T01:02:10.158Z,90.21
2018-03-06T01:04:35.964Z,90.63
2018-03-06T01:07:01.762Z,90.35
2018-03-06T01:09:27.558Z,90.64
2018-03-06T01:11:53.391Z,91.04
2018-03-06T01:14:19.188Z,90.72
2018-03-06T01:16:44.995Z,90.71
2018-03-06T01:19:10.807Z,90.48
2018-03-06T01:21:36.588Z,90.55
2018-03-06T01:24:02.384Z,91.10
2018-03-06T01:26:28.578Z,91.17
2018-03-06T01:28:54.363Z,90.94
2018-03-06T01:31:20.167Z,91.04
2018-03-06T01:33:45.971Z,90.90
2018-03-06T01:36:11.767Z,91.32
2018-03-06T01:38:37.536Z,90.75
2018-03-06T01:41:03.372Z,90.86
2018-03-06T01:43:29.171Z,91.15
2018-03-06T01:45:54.957Z,91.21
2018-03-06T01:48:20.760Z,91.70
2018-03-06T01:50:46.576Z,91.57
2018-03-06T01:53:12.374Z,91.63
2018-03-06T01:55:38.166Z,91.80
2018-03-06T01:58:03.992Z,92.21
2018-03-06T02:00:29.796Z,91.92
2018-03-06T02:02:55.590Z,91.86
2018-03-06T02:05:21.411Z,91.85
2018-03-06T02:07:47.199Z,91.71
2018-03-06T02:10:13.010Z,92.10
2018-03-06T02:12:38.832Z,92.10
2018-03-06T02:15:04.633Z,91.93
2018-03-06T02:17:30.419Z,91.83
2018-03-06T02:19:56.222Z,92.45
2018-03-06T02:22:22.008Z,91.98
2018-03-06T02:24:47.798Z,92.29
2018-03-06T02:27:13.615Z,92.22
2018-03-06T02:29:39.396Z,91.90
2018-03-06T02:32:05.217Z,92.01
2018-03-06T02:34:31.023Z,91.85
2018-03-06T02:36:56.830Z,91.92
2018-03-06T02:39:22.824Z,91.97
2018-03-06T02:41:48.644Z,91.78
2018-03-06T02:44:14.448Z,91.83
2018-03-06T02:46:40.264Z,91.97
2018-03-06T02:49:06.059Z,91.83
2018-03-06T02:51:31.860Z,92.33
2018-03-06T02:53:58.048Z,92.34
2018-03-06T02:56:23.842Z,92.90
2018-03-06T02:58:49.638Z,92.82
2018-03-06T03:01:15.454Z,92.88
2018-03-06T03:03:41.243Z,92.86
2018-03-06T03:06:07.060Z,93.06
2018-03-06T03:08:32.869Z,93.05
2018-03-06T03:10:59.599Z,92.94
2018-03-06T03:13:25.440Z,93.28
2018-03-06T03:15:51.239Z,93.23
2018-03-06T03:18:17.031Z,93.41
2018-03-06T03:20:42.846Z,93.11
2018-03-06T03:23:08.643Z,93.23
2018-03-06T03:25:34.442Z,93.86
2018-03-06T03:28:00.625Z,93.61
2018-03-06T03:30:26.430Z,93.66
2018-03-06T03:32:52.216Z,93.44
2018-03-06T03:35:18.027Z,93.61
2018-03-06T03:37:43.807Z,93.60
2018-03-06T03:40:09.602Z,93.70
2018-03-06T03:42:35.540Z,93.38
2018-03-06T03:45:01.344Z,93.21
2018-03-06T03:47:27.132Z,93.19
2018-03-06T03:49:52.950Z,93.26
2018-03-06T03:52:19.663Z,93.56
2018-03-06T03:54:45.444Z,93.69
2018-03-06T03:57:12.177Z,93.77
2018-03-06T03:59:37.986Z,93.80
2018-03-06T04:02:03.808Z,93.58
2018-03-06T04:04:29.944Z,93.47
2018-03-06T04:06:55.755Z,93.49
2018-03-06T04:09:21.543Z,93.67
2018-03-06T04:11:47.338Z,93.48
2018-03-06T04:14:13.126Z,93.29
2018-03-06T04:16:40.198Z,93.32
2018-03-06T04:19:05.991Z,93.42
2018-03-06T04:21:31.783Z,93.26
2018-03-06T04:23:57.617Z,93.25
2018-03-06T04:26:23.371Z,93.09
2018-03-06T04:28:49.159Z,93.29
2018-03-06T04:31:15.175Z,93.18
2018-03-06T04:33:40.958Z,93.28
2018-03-06T04:36:06.747Z,93.42
2018-03-06T04:38:32.728Z,93.58
2018-03-06T04:40:58.638Z,93.41
2018-03-06T04:43:24.434Z,93.18
2018-03-06T04:45:50.403Z,93.08
2018-03-06T04:48:16.190Z,93.00
2018-03-06T04:50:41.979Z,92.92
2018-03-06T04:53:07.812Z,92.60
2018-03-06T04:55:33.611Z,92.31
2018-03-06T04:57:59.411Z,92.44
2018-03-06T05:00:25.511Z,92.78
2018-03-06T05:02:51.306Z,92.68
2018-03-06T05:05:17.100Z,92.72
2018-03-06T05:07:42.919Z,92.83
2018-03-06T05:10:08.711Z,92.06
2018-03-06T05:12:34.518Z,91.22
2018-03-06T05:15:00.330Z,91.10
2018-03-06T05:17:26.122Z,91.62
2018-03-06T05:19:51.915Z,91.74
2018-03-06T05:22:17.744Z,91.36
2018-03-06T05:24:43.539Z,91.73
2018-03-06T05:27:09.327Z,91.50
2018-03-06T05:29:35.323Z,91.75
2018-03-06T05:32:01.116Z,91.79
2018-03-06T05:34:26.908Z,91.83
2018-03-06T05:36:52.703Z,91.72
2018-03-06T05:39:18.524Z,91.82
2018-03-06T05:41:44.342Z,91.96
2018-03-06T05:44:10.136Z,91.90
2018-03-06T05:46:35.941Z,91.37
2018-03-06T05:49:01.763Z,91.61
2018-03-06T05:51:27.567Z,91.77
2018-03-06T05:53:53.371Z,92.99
2018-03-06T05:56:19.192Z,92.99
2018-03-06T05:58:44.975Z,92.70
2018-03-06T06:01:10.782Z,96.58
2018-03-06T06:03:36.562Z,84.96
2018-03-06T06:06:02.358Z,87.93
2018-03-06T06:08:28.159Z,89.21
2018-03-06T06:10:54.135Z,90.20
2018-03-06T06:13:19.937Z,90.36
2018-03-06T06:15:45.738Z,90.52
2018-03-06T06:18:11.538Z,90.67
2018-03-06T06:20:37.323Z,90.95
2018-03-06T06:23:03.428Z,91.20
2018-03-06T06:25:29.232Z,91.03
2018-03-06T06:27:55.035Z,91.15
2018-03-06T06:30:20.831Z,91.47
2018-03-06T06:32:46.644Z,91.53
2018-03-06T06:35:12.442Z,91.52
2018-03-06T06:37:38.223Z,91.44
2018-03-06T06:40:04.156Z,91.49
2018-03-06T06:42:29.939Z,91.64
2018-03-06T06:44:55.747Z,91.39
2018-03-06T06:47:21.547Z,90.97
2018-03-06T06:49:47.360Z,90.97
2018-03-06T06:52:13.156Z,91.09
2018-03-06T06:54:39.167Z,90.88
2018-03-06T06:57:04.956Z,90.74
2018-03-06T06:59:30.791Z,90.75
2018-03-06T07:01:56.735Z,90.78
2018-03-06T07:04:22.548Z,92.38
2018-03-06T07:06:48.309Z,92.34
2018-03-06T07:09:14.151Z,90.15
2018-03-06T07:11:39.936Z,88.43
2018-03-06T07:14:05.722Z,89.18
2018-03-06T07:16:31.535Z,88.29
2018-03-06T07:18:57.323Z,88.61
2018-03-06T07:21:23.118Z,87.30
2018-03-06T07:23:48.986Z,86.77
2018-03-06T07:26:14.753Z,86.62
2018-03-06T07:28:40.532Z,86.93
2018-03-06T07:31:06.347Z,85.49
2018-03-06T07:33:32.119Z,84.89
2018-03-06T07:35:57.906Z,84.71
2018-03-06T07:38:23.719Z,84.60
2018-03-06T07:40:49.515Z,83.89
2018-03-06T07:43:15.293Z,83.79
2018-03-06T07:45:41.098Z,82.25
2018-03-06T07:48:06.875Z,82.27
2018-03-06T07:50:32.650Z,81.92
2018-03-06T07:52:58.540Z,80.99
2018-03-06T07:55:24.331Z,81.67
2018-03-06T07:57:50.102Z,82.13
2018-03-06T08:00:15.891Z,80.90
2018-03-06T08:02:41.700Z,80.57
2018-03-06T08:05:08.292Z,80.39
2018-03-06T08:07:34.063Z,80.10
2018-03-06T08:09:59.871Z,79.22
2018-03-06T08:12:25.650Z,80.01
2018-03-06T08:14:51.425Z,79.00
2018-03-06T08:17:17.240Z,78.33
2018-03-06T08:19:43.018Z,78.87
2018-03-06T08:22:08.794Z,77.83
2018-03-06T08:24:34.956Z,77.34
2018-03-06T08:27:00.749Z,77.49
2018-03-06T08:29:26.535Z,76.70
2018-03-06T08:31:52.335Z,75.78
2018-03-06T08:34:18.145Z,75.95
2018-03-06T08:36:43.962Z,75.18
2018-03-06T08:39:09.751Z,75.79
2018-03-06T08:41:35.529Z,75.08
2018-03-06T08:44:01.340Z,74.32
2018-03-06T08:46:27.157Z,75.20
2018-03-06T08:48:52.948Z,75.40
2018-03-06T08:51:18.762Z,75.13
2018-03-06T08:53:44.555Z,74.30
2018-03-06T08:56:10.340Z,74.44
2018-03-06T08:58:36.133Z,74.84
2018-03-06T09:01:01.912Z,75.03
2018-03-06T09:03:27.732Z,74.63
2018-03-06T09:05:53.798Z,74.75
2018-03-06T09:08:19.597Z,74.81
2018-03-06T09:10:45.372Z,74.65
2018-03-06T09:13:11.168Z,74.20
2018-03-06T09:15:36.974Z,74.13
2018-03-06T09:18:02.777Z,74.29
2018-03-06T09:20:28.560Z,73.00
2018-03-06T09:22:54.347Z,72.61
2018-03-06T09:25:20.138Z,72.41
2018-03-06T09:27:45.944Z,72.75
2018-03-06T09:30:11.723Z,72.04
2018-03-06T09:32:37.515Z,71.37
2018-03-06T09:35:03.346Z,71.66
2018-03-06T09:37:29.161Z,71.19
2018-03-06T09:39:54.954Z,70.84
2018-03-06T09:42:20.755Z,70.51
2018-03-06T09:44:46.866Z,70.36
2018-03-06T09:47:12.674Z,70.29
2018-03-06T09:49:38.614Z,69.65
2018-03-06T09:52:08.306Z,69.27
2018-03-06T09:54:34.154Z,68.80
2018-03-06T09:57:00.824Z,68.42
2018-03-06T09:59:26.726Z,68.58
2018-03-06T10:01:52.519Z,68.99
2018-03-06T10:04:18.319Z,67.92
2018-03-06T10:06:44.166Z,67.69
2018-03-06T10:09:09.977Z,67.60
2018-03-06T10:11:35.791Z,67.39
2018-03-06T10:14:01.607Z,67.52
2018-03-06T10:16:27.411Z,67.24
2018-03-06T10:18:53.317Z,67.27
2018-03-06T10:21:19.197Z,67.35
2018-03-06T10:23:45.117Z,67.67
2018-03-06T10:26:10.936Z,67.38
2018-03-06T10:28:36.736Z,67.22
2018-03-06T10:31:02.611Z,66.40
2018-03-06T10:33:28.446Z,66.19
2018-03-06T10:35:54.264Z,65.75
2018-03-06T10:38:20.399Z,65.99
2018-03-06T10:40:46.233Z,65.61
2018-03-06T10:43:12.023Z,66.29
2018-03-06T10:45:37.819Z,65.18
2018-03-06T10:48:03.652Z,65.66
2018-03-06T10:50:29.476Z,65.58
2018-03-06T10:52:55.259Z,65.84
2018-03-06T10:55:21.101Z,65.84
2018-03-06T10:57:46.900Z,64.69
2018-03-06T11:00:12.715Z,65.04
2018-03-06T11:02:41.511Z,65.62
2018-03-06T11:05:07.328Z,65.10
2018-03-06T11:07:33.111Z,65.56
2018-03-06T11:09:58.923Z,65.10
2018-03-06T11:12:25.065Z,64.77
2018-03-06T11:14:50.882Z,64.00
2018-03-06T11:17:16.667Z,64.60
2018-03-06T11:19:42.507Z,64.64
2018-03-06T11:22:08.315Z,64.90
2018-03-06T11:24:34.186Z,65.27
2018-03-06T11:27:00.995Z,65.07
2018-03-06T11:29:26.910Z,63.34
2018-03-06T11:31:52.708Z,63.80
2018-03-06T11:34:18.611Z,64.25
2018-03-06T11:36:44.709Z,64.01
2018-03-06T11:39:10.560Z,64.31
2018-03-06T11:41:36.384Z,64.73
2018-03-06T11:44:02.505Z,64.84
2018-03-06T11:46:28.299Z,64.33
2018-03-06T11:48:54.094Z,64.93
2018-03-06T11:51:20.187Z,64.12
2018-03-06T11:53:46.012Z,63.97
2018-03-06T11:56:11.807Z,63.75
2018-03-06T11:58:38.030Z,63.66
2018-03-06T12:01:03.835Z,80.35
2018-03-06T12:03:29.624Z,61.61
2018-03-06T12:05:55.582Z,62.93
2018-03-06T12:08:21.384Z,62.83
2018-03-06T12:10:47.755Z,63.36
2018-03-06T12:13:13.571Z,62.26
2018-03-06T12:15:39.393Z,62.56
2018-03-06T12:18:05.210Z,62.53
2018-03-06T12:20:31.007Z,62.07
2018-03-06T12:22:56.820Z,61.38
2018-03-06T12:25:22.603Z,62.17
2018-03-06T12:27:48.473Z,62.13
2018-03-06T12:30:14.287Z,61.54
2018-03-06T12:32:40.092Z,60.37
2018-03-06T12:35:06.795Z,60.82
2018-03-06T12:37:32.609Z,59.97
2018-03-06T12:39:58.446Z,59.26
2018-03-06T12:42:24.245Z,58.12
2018-03-06T12:44:50.426Z,57.17
2018-03-06T12:47:16.243Z,58.50
2018-03-06T12:49:42.039Z,58.26
2018-03-06T12:52:07.956Z,55.49
2018-03-06T12:54:34.791Z,56.18
2018-03-06T12:57:00.600Z,55.78
2018-03-06T12:59:26.398Z,55.46
2018-03-06T13:01:52.210Z,54.78
2018-03-06T13:04:18.043Z,54.94
2018-03-06T13:06:43.846Z,54.20
2018-03-06T13:09:09.651Z,54.35
2018-03-06T13:11:35.449Z,55.20
2018-03-06T13:14:01.259Z,54.73
2018-03-06T13:16:27.061Z,54.33
2018-03-06T13:18:52.907Z,55.05
2018-03-06T13:21:18.735Z,54.38
2018-03-06T13:23:44.552Z,54.87
2018-03-06T13:26:10.460Z,54.62
2018-03-06T13:28:36.471Z,52.60
2018-03-06T13:31:02.291Z,53.53
2018-03-06T13:33:28.115Z,55.22
2018-03-06T13:35:53.993Z,60.40
2018-03-06T13:38:19.849Z,54.18
2018-03-06T13:40:45.660Z,54.96
2018-03-06T13:43:11.468Z,53.87
2018-03-06T13:45:37.266Z,54.12
2018-03-06T13:48:03.136Z,55.64
2018-03-06T13:50:28.976Z,55.17
2018-03-06T13:52:54.828Z,53.12
2018-03-06T13:55:20.624Z,54.29
2018-03-06T13:57:46.410Z,53.96
2018-03-06T14:00:12.421Z,53.01
2018-03-06T14:02:38.270Z,53.33
2018-03-06T14:05:04.071Z,53.88
2018-03-06T14:07:29.895Z,54.05
2018-03-06T14:09:55.699Z,54.29
2018-03-06T14:12:21.495Z,52.47
2018-03-06T14:14:47.456Z,52.37
2018-03-06T14:17:13.272Z,51.68
2018-03-06T14:19:39.069Z,53.02
2018-03-06T14:22:04.943Z,54.33
2018-03-06T14:24:30.728Z,55.50
2018-03-06T14:26:57.977Z,55.84
2018-03-06T14:29:24.083Z,56.47
2018-03-06T14:31:49.882Z,60.39
2018-03-06T14:34:15.699Z,67.95
2018-03-06T14:36:42.468Z,52.05
2018-03-06T14:39:08.281Z,54.40
2018-03-06T14:41:34.108Z,55.70
2018-03-06T14:44:00.638Z,57.32
2018-03-06T14:46:26.551Z,57.85
2018-03-06T14:48:52.635Z,58.43
2018-03-06T14:51:19.515Z,58.59
2018-03-06T14:53:45.322Z,59.15
2018-03-06T14:56:11.137Z,58.72
2018-03-06T14:58:36.937Z,58.90
2018-03-06T15:01:02.748Z,59.04
2018-03-06T15:03:28.555Z,58.99
2018-03-06T15:05:54.346Z,59.06
2018-03-06T15:08:20.136Z,59.32
2018-03-06T15:10:46.266Z,59.75
2018-03-06T15:13:12.049Z,59.54
2018-03-06T15:15:37.840Z,59.99
2018-03-06T15:18:03.636Z,60.08
2018-03-06T15:20:29.431Z,60.39
2018-03-06T15:22:55.233Z,60.50
2018-03-06T15:25:21.012Z,60.67
2018-03-06T15:27:46.816Z,60.64
2018-03-06T15:30:12.627Z,60.80
2018-03-06T15:32:38.415Z,60.55
2018-03-06T15:35:04.203Z,60.41
2018-03-06T15:37:30.322Z,60.64
2018-03-06T15:39:56.101Z,60.71
2018-03-06T15:42:21.895Z,61.09
2018-03-06T15:44:47.707Z,61.22
2018-03-06T15:47:13.487Z,61.43
2018-03-06T15:49:39.271Z,61.36
2018-03-06T15:52:05.381Z,61.67
2018-03-06T15:54:31.205Z,61.64
2018-03-06T15:56:57.007Z,61.99
2018-03-06T15:59:22.811Z,62.77
2018-03-06T16:01:48.967Z,62.96
2018-03-06T16:04:14.747Z,63.22
2018-03-06T16:06:40.526Z,63.68
2018-03-06T16:09:06.325Z,63.41
2018-03-06T16:11:32.109Z,63.73
2018-03-06T16:13:57.887Z,63.97
2018-03-06T16:16:23.692Z,63.53
2018-03-06T16:18:49.479Z,64.13
2018-03-06T16:21:15.258Z,64.55
2018-03-06T16:23:41.068Z,64.79
2018-03-06T16:26:06.861Z,64.86
2018-03-06T16:28:32.638Z,68.97
2018-03-06T16:30:59.009Z,65.29
2018-03-06T16:33:24.790Z,66.08
2018-03-06T16:35:50.580Z,65.80
2018-03-06T16:38:16.391Z,65.29
2018-03-06T16:40:42.171Z,66.05
2018-03-06T16:43:08.507Z,65.88
2018-03-06T16:45:34.534Z,66.59
2018-03-06T16:48:00.319Z,66.76
2018-03-06T16:50:26.107Z,72.40
2018-03-06T16:52:51.940Z,72.38
2018-03-06T16:55:18.660Z,73.00
2018-03-06T16:57:44.447Z,72.15
2018-03-06T17:00:10.545Z,72.33
2018-03-06T17:02:36.332Z,69.94
2018-03-06T17:05:02.144Z,72.71
2018-03-06T17:07:27.949Z,72.47
2018-03-06T17:09:53.728Z,72.50
2018-03-06T17:12:19.498Z,70.49
2018-03-06T17:14:45.634Z,71.19
2018-03-06T17:17:11.477Z,71.43
2018-03-06T17:19:37.251Z,69.67
2018-03-06T17:22:03.076Z,69.13
2018-03-06T17:24:28.852Z,69.45
2018-03-06T17:26:54.634Z,69.19
2018-03-06T17:29:20.416Z,69.74
2018-03-06T17:31:46.192Z,70.51
2018-03-06T17:34:11.991Z,69.11
2018-03-06T17:36:37.778Z,70.61
2018-03-06T17:39:03.588Z,70.04
2018-03-06T17:41:29.380Z,70.66
2018-03-06T17:43:55.463Z,71.20
2018-03-06T17:46:21.263Z,70.82
2018-03-06T17:48:47.048Z,72.00
2018-03-06T17:51:12.857Z,72.76
2018-03-06T17:53:38.664Z,72.92
2018-03-06T17:56:04.480Z,72.66
2018-03-06T17:58:30.548Z,71.85
2018-03-06T18:00:56.353Z,73.02
2018-03-06T18:03:22.140Z,73.67
2018-03-06T18:05:47.956Z,73.75
2018-03-06T18:08:13.736Z,73.69
2018-03-06T18:10:39.540Z,74.31
2018-03-06T18:13:05.336Z,74.63
2018-03-06T18:15:31.129Z,72.62
2018-03-06T18:17:56.904Z,74.22
2018-03-06T18:20:22.967Z,74.02
2018-03-06T18:22:48.774Z,73.37
2018-03-06T18:25:14.564Z,74.22
2018-03-06T18:27:40.623Z,73.70
2018-03-06T18:30:06.425Z,74.93
2018-03-06T18:32:32.224Z,74.53
2018-03-06T18:34:58.034Z,74.39
2018-03-06T18:37:23.885Z,75.15
2018-03-06T18:39:49.664Z,75.35
2018-03-06T18:42:15.449Z,77.80
2018-03-06T18:44:41.227Z,74.68
2018-03-06T18:47:07.401Z,75.30
2018-03-06T18:49:33.216Z,75.91
2018-03-06T18:51:59.016Z,76.36
2018-03-06T18:54:24.855Z,76.54
2018-03-06T18:56:50.651Z,76.70
2018-03-06T18:59:16.493Z,76.83
2018-03-06T19:02:13.052Z,76.65
2018-03-06T19:07:38.853Z,76.79
2018-03-06T19:10:04.642Z,76.83
2018-03-06T19:12:30.447Z,77.01
2018-03-06T19:14:56.222Z,76.87
2018-03-06T19:17:22.008Z,76.82
2018-03-06T19:19:47.798Z,77.10
2018-03-06T19:22:13.590Z,77.37
2018-03-06T19:24:39.376Z,77.32
2018-03-06T19:27:05.196Z,77.30
2018-03-06T19:29:30.999Z,77.38
2018-03-06T19:31:56.788Z,77.41
2018-03-06T19:34:22.675Z,77.49
2018-03-06T19:36:48.466Z,77.58
2018-03-06T19:39:14.268Z,77.76
2018-03-06T19:41:40.400Z,78.02
2018-03-06T19:44:06.203Z,77.90
2018-03-06T19:46:31.992Z,77.92
2018-03-06T19:48:57.796Z,78.06
2018-03-06T19:51:23.579Z,78.10
2018-03-06T19:53:49.378Z,78.22
2018-03-06T19:56:15.176Z,77.95
2018-03-06T19:58:40.962Z,77.93
2018-03-06T20:01:06.744Z,77.82
2018-03-06T20:03:32.543Z,77.69
2018-03-06T20:05:58.330Z,77.92
2018-03-06T20:08:24.125Z,77.75
2018-03-06T20:10:49.955Z,77.89
2018-03-06T20:13:15.760Z,78.05
2018-03-06T20:15:41.687Z,78.18
2018-03-06T20:18:07.558Z,78.04
2018-03-06T20:20:33.390Z,77.89
2018-03-06T20:22:59.304Z,78.51
2018-03-06T20:25:31.256Z,78.48
2018-03-06T20:27:57.086Z,78.38
2018-03-06T20:30:28.944Z,78.22
2018-03-06T20:33:00.792Z,77.84
2018-03-06T20:35:26.596Z,78.11
2018-03-06T20:37:52.557Z,78.33
2018-03-06T20:40:24.440Z,78.04
2018-03-06T20:42:50.323Z,78.19
2018-03-06T20:45:16.106Z,78.79
2018-03-06T20:47:42.289Z,78.81
2018-03-06T20:50:08.103Z,78.53
2018-03-06T20:52:39.869Z,78.16
2018-03-06T20:55:06.765Z,97.11
2018-03-06T20:57:32.614Z,85.62
2018-03-06T20:59:58.559Z,73.60
2018-03-06T21:02:24.660Z,75.74
2018-03-06T21:04:50.722Z,85.12
2018-03-06T21:07:16.558Z,72.00
2018-03-06T21:09:42.483Z,74.04
2018-03-06T21:12:08.295Z,75.07
2018-03-06T21:14:34.131Z,76.10
2018-03-06T21:16:59.944Z,76.59
2018-03-06T21:19:25.786Z,76.74
2018-03-06T21:21:51.586Z,76.60
2018-03-06T21:24:17.412Z,77.07
2018-03-06T21:26:43.541Z,77.16
2018-03-06T21:29:09.382Z,77.54
2018-03-06T21:31:35.374Z,77.68
2018-03-06T21:34:01.181Z,77.80
2018-03-06T21:36:27.027Z,78.25
2018-03-06T21:38:52.848Z,78.17
2018-03-06T21:41:18.654Z,78.30
2018-03-06T21:43:44.468Z,78.11
2018-03-06T21:46:10.283Z,78.06
2018-03-06T21:48:36.069Z,77.83
2018-03-06T21:51:01.891Z,77.85
2018-03-06T21:53:27.711Z,77.85
2018-03-06T21:55:53.530Z,77.82
2018-03-06T21:58:21.159Z,78.01
2018-03-06T22:00:47.576Z,78.30
2018-03-06T22:03:13.389Z,78.29
2018-03-06T22:05:39.217Z,78.82
2018-03-06T22:08:05.053Z,78.43
2018-03-06T22:10:30.867Z,78.13
2018-03-06T22:12:56.662Z,78.31
2018-03-06T22:15:22.459Z,78.16
2018-03-06T22:17:48.308Z,78.30
2018-03-06T22:20:14.223Z,78.21
2018-03-06T22:22:40.025Z,77.78
2018-03-06T22:25:05.827Z,77.77
2018-03-06T22:27:31.636Z,77.97
2018-03-06T22:29:57.432Z,79.54
2018-03-06T22:32:23.219Z,79.59
2018-03-06T22:34:49.008Z,79.00
2018-03-06T22:37:14.780Z,78.65
2018-03-06T22:39:40.587Z,77.69
2018-03-06T22:42:06.391Z,79.80
2018-03-06T22:44:32.199Z,82.17
2018-03-06T22:46:58.016Z,81.94
2018-03-06T22:49:23.920Z,80.90
2018-03-06T22:51:49.721Z,85.83
2018-03-06T22:54:15.545Z,76.68
2018-03-06T22:56:41.348Z,77.39
2018-03-06T22:59:07.140Z,77.93
2018-03-06T23:01:33.528Z,78.01
2018-03-06T23:03:59.320Z,82.91
2018-03-06T23:06:25.132Z,76.90
2018-03-06T23:08:51.096Z,77.31
2018-03-06T23:11:17.688Z,78.38
2018-03-06T23:13:44.655Z,81.98
2018-03-06T23:16:10.506Z,77.75
2018-03-06T23:18:36.340Z,77.36
2018-03-06T23:21:02.158Z,81.07
2018-03-06T23:23:28.149Z,81.77
2018-03-06T23:25:53.977Z,79.75
2018-03-06T23:28:19.849Z,76.51
2018-03-06T23:30:46.084Z,77.33
2018-03-06T23:33:11.940Z,77.62
2018-03-06T23:35:37.748Z,78.75
2018-03-06T23:38:04.875Z,78.19
2018-03-06T23:40:32.869Z,80.45
2018-03-06T23:42:58.788Z,81.02
2018-03-06T23:45:24.813Z,78.08
2018-03-06T23:47:51.071Z,78.47
2018-03-06T23:50:16.929Z,78.88
2018-03-06T23:52:43.044Z,79.46
2018-03-06T23:55:08.835Z,78.83
2018-03-06T23:57:34.753Z,80.47
